Time;durP1;ratioP1;P1;durP2;ratioP2;P2;SDS_P1;SDS_P2;PMS_P1;PMS_P2;Temp;Humidity;BMP_temperature;BMP_pressure;BME280_temperature;BME280_humidity;BME280_pressure;Samples;Min_cycle;Max_cycle;Signal;HPM_P1;HPM_P2
2020/12/22 00:00:41;;;;;;;7.63;4.33;;;10.00;1.00;;;;;;5074191;28;20776;-77
2020/12/22 00:03:17;;;;;;;5.87;4.03;;;10.10;1.00;;;;;;5073661;28;20880;-77
2020/12/22 00:06:11;;;;;;;7.70;4.27;;;10.10;1.00;;;;;;5073736;28;20915;-77
2020/12/22 00:08:41;;;;;;;4.80;4.00;;;10.20;1.00;;;;;;5074325;28;20402;-77
2020/12/22 00:14:35;;;;;;;4.20;3.20;;;10.20;1.00;;;;;;5076619;28;20379;-76
2020/12/22 00:17:17;;;;;;;7.23;3.47;;;10.20;1.00;;;;;;5094242;28;20931;-75
2020/12/22 00:19:47;;;;;;;5.80;3.33;;;10.20;1.00;;;;;;5074681;28;20912;-76
2020/12/22 00:22:17;;;;;;;4.03;2.73;;;10.30;1.00;;;;;;5079682;28;20424;-75
2020/12/22 00:25:17;;;;;;;3.37;2.97;;;10.20;1.00;;;;;;5073706;28;21164;-75
2020/12/22 00:27:59;;;;;;;2.57;2.37;;;10.20;1.00;;;;;;5073918;28;20398;-75
2020/12/22 00:33:53;;;;;;;2.50;2.30;;;10.20;1.00;;;;;;5078538;28;20914;-77
2020/12/22 00:39:47;;;;;;;2.63;1.97;;;10.30;1.00;;;;;;5087320;28;20414;-77
2020/12/22 00:42:35;;;;;;;2.00;1.90;;;10.30;1.00;;;;;;5093588;28;20389;-77
2020/12/22 00:45:01;;;;;;;3.97;2.27;;;10.40;1.00;;;;;;5079248;28;20416;-77
2020/12/22 00:47:27;;;;;;;2.60;2.40;;;10.40;1.00;;;;;;5092964;28;20385;-77
2020/12/22 00:50:11;;;;;;;4.17;2.17;;;10.40;1.00;;;;;;5084818;28;20405;-77
2020/12/22 00:53:11;;;;;;;2.27;2.07;;;10.40;1.00;;;;;;5073194;28;20167;-77
2020/12/22 00:55:59;;;;;;;6.13;1.80;;;10.40;1.00;;;;;;5073300;28;20389;-77
2020/12/22 00:58:27;;;;;;;2.10;1.90;;;10.50;1.00;;;;;;5072934;28;20405;-78
2020/12/22 01:01:17;;;;;;;2.07;1.80;;;10.50;1.00;;;;;;5090258;28;20920;-76
2020/12/22 01:03:44;;;;;;;3.63;2.37;;;10.60;1.00;;;;;;5073056;28;20416;-75
2020/12/22 01:06:10;;;;;;;1.97;1.60;;;10.60;1.00;;;;;;5073418;28;20422;-75
2020/12/22 01:08:42;;;;;;;2.23;1.97;;;10.60;1.00;;;;;;5075570;28;20993;-76
2020/12/22 01:11:23;;;;;;;2.87;2.23;;;10.60;1.00;;;;;;5089726;28;20253;-76
2020/12/22 01:14:06;;;;;;;2.07;1.97;;;10.70;1.00;;;;;;5093423;28;20419;-75
2020/12/22 01:16:33;;;;;;;2.67;2.30;;;10.60;1.00;;;;;;5093703;28;20467;-76
2020/12/22 01:18:59;;;;;;;1.80;1.70;;;10.70;1.00;;;;;;5093382;28;20408;-75
2020/12/22 01:21:24;;;;;;;1.93;1.67;;;10.70;1.00;;;;;;5081931;28;20417;-75
2020/12/22 01:23:50;;;;;;;1.93;1.80;;;10.80;1.00;;;;;;5093469;28;20412;-76
2020/12/22 01:26:25;;;;;;;1.53;1.43;;;10.70;1.00;;;;;;5084666;28;20167;-75
2020/12/22 01:28:59;;;;;;;1.50;1.40;;;10.70;1.00;;;;;;5082321;28;20778;-75
2020/12/22 01:31:42;;;;;;;1.77;1.67;;;10.80;1.00;;;;;;5084862;28;20413;-75
2020/12/22 01:34:07;;;;;;;1.50;1.40;;;10.80;1.00;;;;;;5073174;28;20385;-76
2020/12/22 01:36:59;;;;;;;1.33;1.23;;;10.80;1.00;;;;;;5086704;28;20462;-76
2020/12/22 01:39:35;;;;;;;2.63;1.90;;;10.80;1.00;;;;;;5093029;28;20167;-76
2020/12/22 01:42:07;;;;;;;1.60;1.50;;;10.80;1.00;;;;;;5080878;28;20916;-76
2020/12/22 01:44:33;;;;;;;1.93;1.83;;;10.80;1.00;;;;;;5076650;28;20389;-76
2020/12/22 01:46:59;;;;;;;1.80;1.60;;;10.90;1.00;;;;;;5076549;28;20779;-76
2020/12/22 01:49:31;;;;;;;1.93;1.83;;;10.90;1.00;;;;;;5076516;28;20173;-76
2020/12/22 01:52:06;;;;;;;2.00;1.90;;;10.90;1.00;;;;;;5076719;28;20204;-75
2020/12/22 01:54:32;;;;;;;1.77;1.67;;;10.90;1.00;;;;;;5076268;28;20409;-76
2020/12/22 01:56:58;;;;;;;2.10;2.00;;;10.90;1.00;;;;;;5090242;28;20792;-76
2020/12/22 01:59:53;;;;;;;2.43;2.23;;;10.90;1.00;;;;;;5096599;28;20200;-76
2020/12/22 02:02:36;;;;;;;2.33;2.00;;;10.90;1.00;;;;;;5093246;28;20412;-76
2020/12/22 02:05:04;;;;;;;2.57;1.80;;;11.00;1.00;;;;;;5077922;28;20401;-75
2020/12/22 02:07:30;;;;;;;1.97;1.43;;;10.90;1.00;;;;;;5094036;28;20451;-76
2020/12/22 02:10:01;;;;;;;2.00;1.53;;;11.00;1.00;;;;;;5096139;28;20867;-75
2020/12/22 02:12:27;;;;;;;1.73;1.63;;;11.00;1.00;;;;;;5078332;28;20489;-75
2020/12/22 02:14:53;;;;;;;1.87;1.77;;;11.00;1.00;;;;;;5076113;28;20429;-75
2020/12/22 02:17:41;;;;;;;2.00;1.90;;;11.00;1.00;;;;;;5083447;28;20190;-75
2020/12/22 02:20:12;;;;;;;1.70;1.60;;;11.00;1.00;;;;;;5092859;28;20201;-75
2020/12/22 02:23:12;;;;;;;1.67;1.30;;;11.00;1.00;;;;;;5076484;28;20447;-75
2020/12/22 02:25:46;;;;;;;1.40;1.30;;;11.00;1.00;;;;;;5091179;28;20411;-75
2020/12/22 02:28:17;;;;;;;4.20;2.17;;;10.90;1.00;;;;;;5076242;28;20430;-75
2020/12/22 02:30:47;;;;;;;2.47;2.07;;;10.90;1.00;;;;;;5075842;28;20948;-75
2020/12/22 02:33:13;;;;;;;1.93;1.60;;;11.10;1.00;;;;;;5076050;28;21210;-76
2020/12/22 02:35:40;;;;;;;1.80;1.70;;;11.00;1.00;;;;;;5075256;28;20529;-75
2020/12/22 02:38:06;;;;;;;3.07;1.73;;;11.10;1.00;;;;;;5093471;28;20177;-75
2020/12/22 02:40:35;;;;;;;2.03;1.50;;;11.00;1.00;;;;;;5095918;28;20471;-76
2020/12/22 02:43:10;;;;;;;2.20;1.90;;;11.10;1.00;;;;;;5088638;28;20865;-75
2020/12/22 02:45:37;;;;;;;1.37;1.20;;;11.10;1.00;;;;;;5082666;28;20501;-76
2020/12/22 02:58:09;;;;;;;1.50;1.40;;;11.20;1.00;;;;;;5090787;28;20481;-77
2020/12/22 03:04:17;;;;;;;1.47;1.37;;;11.20;1.00;;;;;;5095236;28;20454;-76
2020/12/22 03:06:47;;;;;;;1.30;1.00;;;11.30;1.00;;;;;;5095350;28;21246;-75
2020/12/22 03:09:23;;;;;;;1.10;1.10;;;11.20;1.00;;;;;;5092974;28;20937;-76
2020/12/22 03:11:53;;;;;;;1.27;1.17;;;11.30;1.00;;;;;;5077091;28;20496;-76
2020/12/22 03:14:19;;;;;;;1.03;1.03;;;11.30;1.00;;;;;;5074781;28;20393;-76
2020/12/22 03:17:23;;;;;;;0.90;0.90;;;11.30;1.00;;;;;;5075221;28;20437;-77
2020/12/22 03:23:35;;;;;;;1.00;0.73;;;11.30;1.00;;;;;;5082898;28;20943;-77
2020/12/22 03:26:05;;;;;;;0.93;0.83;;;11.40;1.00;;;;;;5074318;28;20408;-76
2020/12/22 03:28:31;;;;;;;0.80;0.80;;;11.30;1.00;;;;;;5075211;28;20417;-76
2020/12/22 03:31:11;;;;;;;0.60;0.60;;;11.30;1.00;;;;;;5074732;28;20404;-76
2020/12/22 03:33:41;;;;;;;0.90;0.80;;;11.30;1.00;;;;;;5074572;28;20656;-77
2020/12/22 03:36:07;;;;;;;1.43;0.60;;;11.30;1.00;;;;;;5073893;28;20967;-77
2020/12/22 03:45:17;;;;;;;0.50;0.50;;;11.30;1.00;;;;;;5094807;28;21119;-77
2020/12/22 03:51:23;;;;;;;0.50;0.50;;;11.30;1.00;;;;;;5073648;28;20566;-78
2020/12/22 03:54:23;;;;;;;0.60;0.50;;;11.40;1.00;;;;;;5073834;28;20421;-78
2020/12/22 03:56:49;;;;;;;0.60;0.60;;;11.30;1.00;;;;;;5073854;28;20440;-78
2020/12/22 04:02:36;;;;;;;0.60;0.60;;;11.30;1.00;;;;;;5073971;28;20194;-76
2020/12/22 04:05:12;;;;;;;2.30;0.60;;;11.40;1.00;;;;;;5082548;28;20417;-76
2020/12/22 04:11:05;;;;;;;1.83;0.87;;;11.30;1.00;;;;;;5094033;28;20458;-76
2020/12/22 04:13:35;;;;;;;1.93;1.00;;;11.40;1.00;;;;;;5077036;28;20519;-76
2020/12/22 04:16:04;;;;;;;0.70;0.70;;;11.40;1.00;;;;;;5093787;28;20404;-75
2020/12/22 04:18:31;;;;;;;0.60;0.60;;;11.40;1.00;;;;;;5094590;28;20416;-75
2020/12/22 04:20:58;;;;;;;0.90;0.90;;;11.40;1.00;;;;;;5082327;28;20418;-76
2020/12/22 04:23:25;;;;;;;0.70;0.57;;;11.40;1.00;;;;;;5089430;28;20481;-76
2020/12/22 04:25:51;;;;;;;0.90;0.60;;;11.40;1.00;;;;;;5074755;28;20417;-76
2020/12/22 04:28:18;;;;;;;0.70;0.70;;;11.40;1.00;;;;;;5073817;28;20439;-76
2020/12/22 04:30:44;;;;;;;0.77;0.77;;;11.30;1.00;;;;;;5084148;28;20423;-76
2020/12/22 04:33:12;;;;;;;3.13;0.80;;;11.40;1.00;;;;;;5082661;28;20441;-76
2020/12/22 04:35:39;;;;;;;0.70;0.70;;;11.40;1.00;;;;;;5073460;28;20916;-76
2020/12/22 04:38:35;;;;;;;1.43;0.80;;;11.40;1.00;;;;;;5073996;28;20552;-76
2020/12/22 04:41:23;;;;;;;0.80;0.80;;;11.50;1.00;;;;;;5073835;28;20386;-76
2020/12/22 04:43:53;;;;;;;1.90;0.87;;;11.50;1.00;;;;;;5073531;28;20436;-76
2020/12/22 04:46:49;;;;;;;0.57;0.57;;;11.50;1.00;;;;;;5087423;28;20418;-75
2020/12/22 04:49:31;;;;;;;0.80;0.70;;;11.50;1.00;;;;;;5084809;28;20934;-76
2020/12/22 04:51:57;;;;;;;0.93;0.63;;;11.60;1.00;;;;;;5074847;28;20463;-75
2020/12/22 04:54:24;;;;;;;1.17;0.53;;;11.60;1.00;;;;;;5073566;28;20424;-76
2020/12/22 04:57:06;;;;;;;1.70;0.70;;;11.70;1.00;;;;;;5073617;28;20457;-76
2020/12/22 04:59:48;;;;;;;0.50;0.50;;;11.70;1.00;;;;;;5073183;28;20421;-76
2020/12/22 05:02:20;;;;;;;0.43;0.43;;;11.70;1.00;;;;;;5073373;28;20404;-76
2020/12/22 05:04:54;;;;;;;0.50;0.50;;;11.70;1.00;;;;;;5086824;28;20445;-77
2020/12/22 05:10:43;;;;;;;2.23;0.50;;;11.80;1.00;;;;;;5078649;28;20922;-77
2020/12/22 05:16:41;;;;;;;2.00;0.43;;;11.90;1.00;;;;;;5076612;28;20463;-78
2020/12/22 05:22:36;;;;;;;0.60;0.50;;;11.90;1.00;;;;;;5084798;28;20466;-76
2020/12/22 05:25:06;;;;;;;0.60;0.60;;;11.90;1.00;;;;;;5082389;28;20512;-75
2020/12/22 05:27:32;;;;;;;0.83;0.50;;;12.00;1.00;;;;;;5097072;28;20898;-76
2020/12/22 05:30:16;;;;;;;0.60;0.60;;;12.00;1.00;;;;;;5096040;28;20477;-76
2020/12/22 05:33:02;;;;;;;0.60;0.40;;;12.00;1.00;;;;;;5077699;28;20759;-77
2020/12/22 05:35:28;;;;;;;0.50;0.47;;;12.00;1.00;;;;;;5075649;28;20456;-78
2020/12/22 05:37:55;;;;;;;1.67;0.50;;;12.10;1.00;;;;;;5082707;28;20464;-77
2020/12/22 05:40:30;;;;;;;0.40;0.40;;;12.10;1.00;;;;;;5090162;28;20191;-77
2020/12/22 05:43:36;;;;;;;0.60;0.43;;;12.20;1.00;;;;;;5076047;28;20413;-78
2020/12/22 05:49:23;;;;;;;0.40;0.37;;;12.20;1.00;;;;;;5076170;28;20798;-76
2020/12/22 05:51:52;;;;;;;1.07;0.50;;;12.20;1.00;;;;;;5076353;28;20934;-76
2020/12/22 05:54:47;;;;;;;0.40;0.40;;;12.20;1.00;;;;;;5076427;28;20500;-75
2020/12/22 05:57:25;;;;;;;0.40;0.40;;;12.20;1.00;;;;;;5078863;28;20851;-76
2020/12/22 05:59:55;;;;;;;0.40;0.40;;;12.30;1.00;;;;;;5094618;28;20417;-75
2020/12/22 06:02:39;;;;;;;0.40;0.37;;;12.30;1.00;;;;;;5083017;28;20417;-76
2020/12/22 06:05:05;;;;;;;0.60;0.40;;;12.30;1.00;;;;;;5076291;28;20397;-78
2020/12/22 06:07:48;;;;;;;1.50;0.40;;;12.30;1.00;;;;;;5078903;28;20416;-77
2020/12/22 06:10:36;;;;;;;0.40;0.37;;;12.30;1.00;;;;;;5076188;28;20408;-78
2020/12/22 06:16:47;;;;;;;0.40;0.37;;;12.30;1.00;;;;;;5075799;28;20819;-77
2020/12/22 06:19:18;;;;;;;0.40;0.40;;;12.40;1.00;;;;;;5076075;28;20408;-76
2020/12/22 06:22:00;;;;;;;0.40;0.30;;;12.30;1.00;;;;;;5095847;28;20415;-76
2020/12/22 06:24:26;;;;;;;0.40;0.30;;;12.40;1.00;;;;;;5094003;28;20895;-76
2020/12/22 06:27:05;;;;;;;0.40;0.40;;;12.30;1.00;;;;;;5077020;28;20792;-75
2020/12/22 06:29:43;;;;;;;0.40;0.40;;;12.40;1.00;;;;;;5075699;28;20389;-76
2020/12/22 06:32:29;;;;;;;0.40;0.30;;;12.30;1.00;;;;;;5077095;28;20463;-75
2020/12/22 06:35:33;;;;;;;0.40;0.30;;;12.30;1.00;;;;;;5079441;28;20428;-75
2020/12/22 06:37:59;;;;;;;0.50;0.40;;;12.30;1.00;;;;;;5075489;28;20456;-76
2020/12/22 06:43:48;;;;;;;0.40;0.30;;;12.30;1.00;;;;;;5095535;28;20491;-75
2020/12/22 06:46:32;;;;;;;0.40;0.40;;;12.40;1.00;;;;;;5075868;28;20466;-75
2020/12/22 06:48:58;;;;;;;0.40;0.37;;;12.30;1.00;;;;;;5075694;28;20404;-77
2020/12/22 06:51:31;;;;;;;0.40;0.30;;;13.20;1.00;;;;;;5075441;28;20393;-77
2020/12/22 07:00:41;;;;;;;1.10;0.33;;;12.40;1.00;;;;;;5074921;28;20755;-77
2020/12/22 07:03:53;;;;;;;0.50;0.40;;;12.40;1.00;;;;;;5074943;28;20397;-78
2020/12/22 07:06:47;;;;;;;0.70;0.40;;;12.40;1.00;;;;;;5078512;28;20167;-76
2020/12/22 07:09:41;;;;;;;1.50;0.40;;;12.40;1.00;;;;;;5074923;28;20413;-75
2020/12/22 07:12:12;;;;;;;0.50;0.40;;;12.40;1.00;;;;;;5075173;28;20443;-76
2020/12/22 07:14:49;;;;;;;2.00;0.40;;;12.50;1.00;;;;;;5079987;28;20567;-76
2020/12/22 07:17:19;;;;;;;0.50;0.40;;;12.40;1.00;;;;;;5095061;28;20463;-76
2020/12/22 07:20:05;;;;;;;0.40;0.30;;;12.50;1.00;;;;;;5080941;28;20892;-76
2020/12/22 07:22:36;;;;;;;0.40;0.30;;;12.50;1.00;;;;;;5087271;28;20410;-75
2020/12/22 07:25:06;;;;;;;2.00;1.33;;;12.50;1.00;;;;;;5075978;28;20857;-75
2020/12/22 07:27:42;;;;;;;0.50;0.40;;;12.50;1.00;;;;;;5098716;28;20510;-75
2020/12/22 07:30:12;;;;;;;0.50;0.40;;;12.40;1.00;;;;;;5095966;28;20431;-75
2020/12/22 07:32:52;;;;;;;0.80;0.40;;;12.40;1.00;;;;;;5105350;28;21016;-76
2020/12/22 07:35:18;;;;;;;0.40;0.30;;;12.40;1.00;;;;;;5074017;28;20892;-76
2020/12/22 07:37:44;;;;;;;0.50;0.50;;;12.50;1.00;;;;;;5079326;28;20490;-75
2020/12/22 07:40:10;;;;;;;1.20;0.50;;;12.50;1.00;;;;;;5074363;28;20955;-75
2020/12/22 07:42:48;;;;;;;1.80;0.40;;;12.60;1.00;;;;;;5091248;28;20231;-76
2020/12/22 07:45:13;;;;;;;0.67;0.50;;;12.50;1.00;;;;;;5077142;28;20500;-76
2020/12/22 07:47:41;;;;;;;0.40;0.40;;;12.60;1.00;;;;;;5074339;28;20481;-75
2020/12/22 07:50:23;;;;;;;0.50;0.40;;;12.60;1.00;;;;;;5074707;28;20717;-78
2020/12/22 07:56:17;;;;;;;0.40;0.40;;;12.60;1.00;;;;;;5073881;28;20377;-78
2020/12/22 08:02:35;;;;;;;0.40;0.30;;;12.70;1.00;;;;;;5085027;28;20404;-79
2020/12/22 08:05:13;;;;;;;3.80;0.50;;;12.70;1.00;;;;;;5075004;28;20405;-76
2020/12/22 08:07:50;;;;;;;0.50;0.40;;;12.80;1.00;;;;;;5073728;28;20404;-76
2020/12/22 08:10:30;;;;;;;0.50;0.40;;;12.80;1.00;;;;;;5073887;28;20425;-75
2020/12/22 08:13:30;;;;;;;0.50;0.40;;;12.80;1.00;;;;;;5073528;28;20967;-76
2020/12/22 08:16:12;;;;;;;0.80;0.47;;;12.80;1.00;;;;;;5073611;28;20514;-76
2020/12/22 08:18:39;;;;;;;0.40;0.30;;;12.90;1.00;;;;;;5073838;28;20908;-76
2020/12/22 08:21:30;;;;;;;0.50;0.40;;;12.90;1.00;;;;;;5073978;28;20385;-77
2020/12/22 08:24:29;;;;;;;0.53;0.40;;;12.90;1.00;;;;;;5092563;28;20423;-78
2020/12/22 08:27:07;;;;;;;0.97;0.50;;;12.90;1.00;;;;;;5077551;28;20436;-77
2020/12/22 08:30:32;;;;;;;1.90;0.40;;;12.90;1.00;;;;;;5085311;28;20432;-78
2020/12/22 08:36:28;;;;;;;0.40;0.40;;;12.90;1.00;;;;;;5091417;28;20802;-75
2020/12/22 08:39:29;;;;;;;0.50;0.40;;;12.90;1.00;;;;;;5093881;28;20539;-76
2020/12/22 08:42:08;;;;;;;0.40;0.40;;;13.00;1.00;;;;;;5081461;28;20424;-75
2020/12/22 08:44:51;;;;;;;0.40;0.33;;;13.10;1.00;;;;;;5073472;28;20424;-76
2020/12/22 08:47:18;;;;;;;0.47;0.40;;;13.10;1.00;;;;;;5077342;28;20446;-76
2020/12/22 08:53:13;;;;;;;1.60;0.40;;;13.30;1.00;;;;;;5097584;28;20368;-78
2020/12/22 08:59:47;;;;;;;2.10;0.40;;;13.50;1.00;;;;;;5097935;28;20387;-79
2020/12/22 09:02:31;;;;;;;1.30;0.40;;;13.50;1.00;;;;;;5086769;28;20499;-78
2020/12/22 09:04:58;;;;;;;0.50;0.40;;;13.50;1.00;;;;;;5096678;28;20384;-77
2020/12/22 09:07:25;;;;;;;0.40;0.37;;;13.50;1.00;;;;;;5096560;28;20513;-78
2020/12/22 09:09:52;;;;;;;0.50;0.40;;;13.60;1.00;;;;;;5096492;28;20385;-78
2020/12/22 09:12:17;;;;;;;0.80;0.50;;;13.50;1.00;;;;;;5096255;28;20388;-78
2020/12/22 09:14:48;;;;;;;0.40;0.40;;;13.60;1.00;;;;;;5095828;28;20411;-77
2020/12/22 09:17:26;;;;;;;0.50;0.40;;;13.60;1.00;;;;;;5096218;28;20533;-77
2020/12/22 09:19:52;;;;;;;0.50;0.40;;;13.60;1.00;;;;;;5096679;28;20442;-76
2020/12/22 09:22:24;;;;;;;0.40;0.40;;;13.60;1.00;;;;;;5089804;28;20809;-77
2020/12/22 09:24:54;;;;;;;0.50;0.40;;;13.70;1.00;;;;;;5104854;28;20177;-77
2020/12/22 09:27:33;;;;;;;0.50;0.40;;;13.70;1.00;;;;;;5082138;28;20420;-77
2020/12/22 09:29:59;;;;;;;0.40;0.40;;;13.70;1.00;;;;;;5091210;28;20459;-78
2020/12/22 09:35:47;;;;;;;0.50;0.40;;;13.70;1.00;;;;;;5076528;28;20463;-78
2020/12/22 09:38:12;;;;;;;0.40;0.40;;;13.70;1.00;;;;;;5083611;28;20473;-78
2020/12/22 09:41:23;;;;;;;0.40;0.30;;;13.70;1.00;;;;;;5076531;28;20763;-78
2020/12/22 09:43:54;;;;;;;0.40;0.40;;;13.70;1.00;;;;;;5076371;28;20147;-77
2020/12/22 09:46:24;;;;;;;0.40;0.30;;;13.70;1.00;;;;;;5076464;28;20389;-78
2020/12/22 09:49:18;;;;;;;0.70;0.50;;;13.80;1.00;;;;;;5078220;28;20445;-78
2020/12/22 09:55:17;;;;;;;0.50;0.40;;;13.70;1.00;;;;;;5096235;28;20959;-78
2020/12/22 09:58:23;;;;;;;0.40;0.40;;;13.80;1.00;;;;;;5094905;28;20558;-78
2020/12/22 10:01:20;;;;;;;0.70;0.43;;;13.90;1.00;;;;;;5082660;28;20405;-78
2020/12/22 10:14:23;;;;;;;0.50;0.40;;;14.20;1.00;;;;;;5075541;28;20416;-79
2020/12/22 10:20:35;;;;;;;0.50;0.40;;;;;;;;;;5095286;28;20371;-79
2020/12/22 10:23:18;;;;;;;0.50;0.40;;;14.10;1.00;;;;;;5085263;28;20508;-77
2020/12/22 10:26:02;;;;;;;0.40;0.30;;;14.10;1.00;;;;;;5077014;28;20386;-76
2020/12/22 10:28:31;;;;;;;0.50;0.40;;;14.10;1.00;;;;;;5096229;28;20479;-76
2020/12/22 10:31:14;;;;;;;0.40;0.40;;;14.10;1.00;;;;;;5095246;28;20416;-75
2020/12/22 10:33:48;;;;;;;0.60;0.40;;;14.10;1.00;;;;;;5081460;28;20379;-76
2020/12/22 10:36:15;;;;;;;0.50;0.40;;;14.10;1.00;;;;;;5088029;28;20463;-75
2020/12/22 10:38:42;;;;;;;0.40;0.30;;;14.10;1.00;;;;;;5089850;28;20500;-75
2020/12/22 10:41:18;;;;;;;0.40;0.30;;;14.10;1.00;;;;;;5075725;28;20891;-77
2020/12/22 10:43:44;;;;;;;1.23;0.40;;;14.10;1.00;;;;;;5075528;28;20387;-76
2020/12/22 10:46:10;;;;;;;0.60;0.40;;;14.30;1.00;;;;;;5089473;28;20776;-75
2020/12/22 10:48:35;;;;;;;0.50;0.40;;;14.30;1.00;;;;;;5095609;28;20147;-74
2020/12/22 10:51:12;;;;;;;5.03;0.67;;;18.30;1.00;;;;;;5095888;28;20396;-76
2020/12/22 10:53:54;;;;;;;0.40;0.40;;;14.40;1.00;;;;;;5075495;28;20171;-76
2020/12/22 10:56:36;;;;;;;0.60;0.50;;;14.40;1.00;;;;;;5075546;28;20997;-76
2020/12/22 10:59:01;;;;;;;0.40;0.40;;;14.40;1.00;;;;;;5075216;28;20892;-76
2020/12/22 11:01:39;;;;;;;0.50;0.40;;;14.50;1.00;;;;;;5075073;28;20385;-77
2020/12/22 11:04:06;;;;;;;0.50;0.40;;;14.40;1.00;;;;;;5075047;28;20177;-77
2020/12/22 11:06:51;;;;;;;0.53;0.50;;;14.50;1.00;;;;;;5075542;28;20393;-75
2020/12/22 11:09:17;;;;;;;0.47;0.40;;;14.60;1.00;;;;;;5073672;28;20384;-75
2020/12/22 11:11:44;;;;;;;0.40;0.40;;;14.50;1.00;;;;;;5074651;28;20424;-75
2020/12/22 11:14:09;;;;;;;0.43;0.40;;;14.50;1.00;;;;;;5073606;28;20155;-75
2020/12/22 11:16:35;;;;;;;0.50;0.40;;;14.40;1.00;;;;;;5073773;28;20444;-74
2020/12/22 11:19:01;;;;;;;0.50;0.43;;;14.50;1.00;;;;;;5073864;28;20152;-75
2020/12/22 11:21:26;;;;;;;0.50;0.40;;;14.40;1.00;;;;;;5072814;28;20220;-76
2020/12/22 11:23:52;;;;;;;0.50;0.40;;;14.50;1.00;;;;;;5073564;28;20180;-76
2020/12/22 11:26:19;;;;;;;0.40;0.40;;;14.50;1.00;;;;;;5073698;28;20243;-77
2020/12/22 11:28:45;;;;;;;0.50;0.40;;;14.40;1.00;;;;;;5075361;28;20151;-76
2020/12/22 11:31:11;;;;;;;0.50;0.40;;;14.50;1.00;;;;;;5093942;28;20482;-76
2020/12/22 11:33:39;;;;;;;0.50;0.40;;;14.50;1.00;;;;;;5079556;28;20182;-77
2020/12/22 11:36:15;;;;;;;0.40;0.40;;;14.60;1.00;;;;;;5073360;28;20179;-77
2020/12/22 11:38:42;;;;;;;0.40;0.40;;;14.60;1.00;;;;;;5073352;28;20971;-76
2020/12/22 11:41:08;;;;;;;0.50;0.40;;;14.60;1.00;;;;;;5076736;28;20416;-77
2020/12/22 11:43:34;;;;;;;0.50;0.50;;;14.60;1.00;;;;;;5093956;28;20393;-77
2020/12/22 11:46:00;;;;;;;5.43;0.43;;;14.70;1.00;;;;;;5093632;28;20420;-77
2020/12/22 11:48:26;;;;;;;0.70;0.50;;;14.60;1.00;;;;;;5093590;28;20472;-76
2020/12/22 11:50:57;;;;;;;0.50;0.40;;;14.70;1.00;;;;;;5093189;28;20431;-76
2020/12/22 11:53:22;;;;;;;0.57;0.50;;;14.80;1.00;;;;;;5094050;28;20424;-77
2020/12/22 11:55:48;;;;;;;1.30;0.50;;;14.80;1.00;;;;;;5093494;28;20417;-77
2020/12/22 11:58:14;;;;;;;0.50;0.40;;;14.90;1.00;;;;;;5093431;28;20190;-77
2020/12/22 12:00:40;;;;;;;0.87;0.50;;;15.00;1.00;;;;;;5093409;28;20755;-77
2020/12/22 12:03:05;;;;;;;0.40;0.37;;;14.90;1.00;;;;;;5093057;28;20223;-77
2020/12/22 12:05:31;;;;;;;0.50;0.40;;;14.90;1.00;;;;;;5093441;28;20622;-78
2020/12/22 12:07:57;;;;;;;0.50;0.40;;;14.80;1.00;;;;;;5093211;28;20182;-77
2020/12/22 12:10:22;;;;;;;0.40;0.40;;;14.90;1.00;;;;;;5092958;28;20162;-78
2020/12/22 12:12:48;;;;;;;0.43;0.37;;;14.90;1.00;;;;;;5092949;28;20231;-77
2020/12/22 12:15:14;;;;;;;0.97;0.33;;;14.90;1.00;;;;;;5092829;28;20170;-77
2020/12/22 12:17:40;;;;;;;0.40;0.40;;;15.00;1.00;;;;;;5093178;28;20269;-78
2020/12/22 12:20:06;;;;;;;0.50;0.40;;;15.10;1.00;;;;;;5092729;28;20151;-78
2020/12/22 12:22:32;;;;;;;0.50;0.50;;;15.10;1.00;;;;;;5092939;28;20420;-75
2020/12/22 12:24:59;;;;;;;0.70;0.40;;;15.10;1.00;;;;;;5092947;28;20553;-76
2020/12/22 12:27:24;;;;;;;0.40;0.40;;;15.10;1.00;;;;;;5093022;28;20395;-76
2020/12/22 12:29:50;;;;;;;0.60;0.47;;;15.10;1.00;;;;;;5093032;28;20396;-75
2020/12/22 12:32:16;;;;;;;0.63;0.50;;;15.10;1.00;;;;;;5092994;28;20166;-75
2020/12/22 12:34:41;;;;;;;0.40;0.40;;;15.10;1.00;;;;;;5092765;28;20181;-77
2020/12/22 12:37:07;;;;;;;0.50;0.47;;;15.10;1.00;;;;;;5092674;28;20214;-75
2020/12/22 12:39:33;;;;;;;0.50;0.40;;;15.00;1.00;;;;;;5092897;28;20634;-76
2020/12/22 12:41:58;;;;;;;0.50;0.40;;;15.00;1.00;;;;;;5092864;28;20150;-75
2020/12/22 12:44:24;;;;;;;1.00;0.40;;;15.00;1.00;;;;;;5092977;28;20190;-75
2020/12/22 12:46:53;;;;;;;0.90;0.50;;;14.90;1.00;;;;;;5086785;28;20187;-75
2020/12/22 12:49:19;;;;;;;0.40;0.40;;;15.00;1.00;;;;;;5079533;28;20174;-76
2020/12/22 12:51:46;;;;;;;0.73;0.50;;;15.00;1.00;;;;;;5077239;28;20436;-75
2020/12/22 12:54:18;;;;;;;0.50;0.43;;;15.00;1.00;;;;;;5073688;28;20839;-78
2020/12/22 12:56:49;;;;;;;0.50;0.50;;;15.00;1.00;;;;;;5073539;28;20481;-77
2020/12/22 12:59:15;;;;;;;0.40;0.40;;;15.10;1.00;;;;;;5073356;28;20385;-77
2020/12/22 13:01:48;;;;;;;0.50;0.47;;;15.20;1.00;;;;;;5073109;28;20895;-77
2020/12/22 13:04:53;;;;;;;0.50;0.40;;;15.20;1.00;;;;;;5086350;28;20751;-77
2020/12/22 13:07:19;;;;;;;0.40;0.40;;;15.20;1.00;;;;;;5084945;28;20379;-76
2020/12/22 13:09:54;;;;;;;0.40;0.40;;;15.20;1.00;;;;;;5090341;28;20412;-76
2020/12/22 13:12:20;;;;;;;0.80;0.50;;;15.10;1.00;;;;;;5073375;28;20646;-76
2020/12/22 13:14:48;;;;;;;0.50;0.50;;;15.10;1.00;;;;;;5073691;28;20393;-76
2020/12/22 13:17:35;;;;;;;0.50;0.50;;;15.20;1.00;;;;;;5085989;28;20194;-76
2020/12/22 13:20:01;;;;;;;0.60;0.50;;;15.20;1.00;;;;;;5093419;28;20466;-75
2020/12/22 13:22:42;;;;;;;5.13;0.70;;;15.30;1.00;;;;;;5084143;28;20449;-77
2020/12/22 13:25:12;;;;;;;0.50;0.50;;;15.40;1.00;;;;;;5090054;28;20614;-76
2020/12/22 13:27:48;;;;;;;0.40;0.40;;;15.50;1.00;;;;;;5073526;28;20416;-78
2020/12/22 13:30:13;;;;;;;1.80;0.53;;;15.50;1.00;;;;;;5075823;28;20443;-77
2020/12/22 13:33:23;;;;;;;0.50;0.40;;;15.50;1.00;;;;;;5074113;28;20417;-77
2020/12/22 13:35:49;;;;;;;0.50;0.50;;;15.40;1.00;;;;;;5076442;28;20187;-77
2020/12/22 13:38:15;;;;;;;0.90;0.50;;;15.30;1.00;;;;;;5094880;28;20479;-77
2020/12/22 13:41:05;;;;;;;1.80;0.60;;;15.40;1.00;;;;;;5083737;28;20229;-78
2020/12/22 13:43:31;;;;;;;0.40;0.40;;;15.40;1.00;;;;;;5091562;28;20602;-77
2020/12/22 13:46:24;;;;;;;0.57;0.43;;;15.40;1.00;;;;;;5076292;28;20418;-77
2020/12/22 13:52:12;;;;;;;0.50;0.43;;;15.30;1.00;;;;;;5077626;28;20411;-79
2020/12/22 13:54:39;;;;;;;0.50;0.40;;;15.30;1.00;;;;;;5076828;28;20476;-75
2020/12/22 13:57:06;;;;;;;0.50;0.50;;;15.20;1.00;;;;;;5076682;28;20194;-75
2020/12/22 13:59:42;;;;;;;0.60;0.50;;;15.10;1.00;;;;;;5076441;28;20759;-75
2020/12/22 14:02:18;;;;;;;0.87;0.50;;;15.10;1.00;;;;;;5074920;28;20880;-76
2020/12/22 14:04:43;;;;;;;0.80;0.40;;;15.00;1.00;;;;;;5076091;28;20922;-75
2020/12/22 14:07:12;;;;;;;0.50;0.40;;;15.00;1.00;;;;;;5091552;28;20376;-75
2020/12/22 14:09:37;;;;;;;0.50;0.50;;;15.00;1.00;;;;;;5076480;28;20246;-75
2020/12/22 14:12:07;;;;;;;0.50;0.40;;;15.00;1.00;;;;;;5076090;28;20485;-75
2020/12/22 14:14:33;;;;;;;0.60;0.50;;;15.00;1.00;;;;;;5082464;28;20529;-75
2020/12/22 14:16:59;;;;;;;0.50;0.50;;;15.00;1.00;;;;;;5094728;28;20445;-74
2020/12/22 14:19:25;;;;;;;0.50;0.50;;;15.00;1.00;;;;;;5085122;28;20784;-75
2020/12/22 14:21:54;;;;;;;0.50;0.50;;;15.00;1.00;;;;;;5075442;28;20420;-74
2020/12/22 14:24:30;;;;;;;0.50;0.50;;;15.00;1.00;;;;;;5096785;28;20566;-74
2020/12/22 14:27:00;;;;;;;0.50;0.40;;;15.00;1.00;;;;;;5080266;28;20508;-74
2020/12/22 14:29:25;;;;;;;0.50;0.40;;;15.00;1.00;;;;;;5075435;28;20910;-74
2020/12/22 14:31:51;;;;;;;0.50;0.50;;;;;;;;;;5075208;28;20397;-73
2020/12/22 14:34:17;;;;;;;0.50;0.40;;;15.00;1.00;;;;;;5074516;28;20198;-74
2020/12/22 14:36:43;;;;;;;0.50;0.50;;;14.90;1.00;;;;;;5078697;28;20966;-74
2020/12/22 14:39:08;;;;;;;0.73;0.40;;;14.90;1.00;;;;;;5075934;28;20171;-74
2020/12/22 14:41:47;;;;;;;0.50;0.47;;;14.80;1.00;;;;;;5075674;28;20171;-78
2020/12/22 14:44:18;;;;;;;0.50;0.40;;;14.80;1.00;;;;;;5075062;28;20646;-74
2020/12/22 14:46:44;;;;;;;0.53;0.50;;;14.70;1.00;;;;;;5075112;28;20419;-74
2020/12/22 14:49:12;;;;;;;2.30;0.50;;;14.70;1.00;;;;;;5078394;28;20413;-74
2020/12/22 14:51:38;;;;;;;1.27;0.50;;;14.70;1.00;;;;;;5095343;28;20197;-74
2020/12/22 14:54:03;;;;;;;0.50;0.50;;;14.70;1.00;;;;;;5084424;28;20631;-77
2020/12/22 14:56:29;;;;;;;0.50;0.50;;;14.60;1.00;;;;;;5075359;28;20186;-77
2020/12/22 15:02:35;;;;;;;0.60;0.50;;;14.60;1.00;;;;;;5094772;28;20200;-79
2020/12/22 15:05:53;;;;;;;0.97;0.60;;;14.60;1.00;;;;;;5092963;28;20383;-79
2020/12/22 15:08:19;;;;;;;0.50;0.40;;;14.60;1.00;;;;;;5077127;28;20417;-75
2020/12/22 15:10:54;;;;;;;0.50;0.50;;;14.60;1.00;;;;;;5095786;28;20393;-77
2020/12/22 15:13:20;;;;;;;0.50;0.40;;;14.60;1.00;;;;;;5095029;28;20399;-76
2020/12/22 15:15:54;;;;;;;0.40;0.40;;;14.60;1.00;;;;;;5086445;28;20421;-78
2020/12/22 15:18:41;;;;;;;0.50;0.50;;;14.50;1.00;;;;;;5073230;28;20618;-77
2020/12/22 15:21:54;;;;;;;0.40;0.40;;;14.50;1.00;;;;;;5074652;28;20386;-77
2020/12/22 15:24:24;;;;;;;0.40;0.40;;;14.50;1.00;;;;;;5082718;28;20460;-77
2020/12/22 15:27:17;;;;;;;0.40;0.40;;;14.50;1.00;;;;;;5087544;28;20409;-77
2020/12/22 15:30:17;;;;;;;0.50;0.50;;;14.40;1.00;;;;;;5074446;28;20390;-77